AAL2 KSJC-KSGU
Flight info
| Callsign | AAL2 |
|---|---|
| Flight time | 1h 11m |
| Altitude | 37000 |
| Route | SPTNS1 TECKY NTELL KROST ILC EHK |
| Aircraft | A320/M-SDE3FGHIRWY/LB1 |
Departure
| Time | 2026-04-25 17:10 |
|---|---|
| Airport | Norman Y. Mineta San Jose International Airport (KSJC) |
Arrival
| Time | 2026-04-25 18:22 |
|---|---|
| Airport | St George Regional Airport (KSGU) |
| Time | Latitude | Longitude | Altitude | Speed | Heading |
|---|---|---|---|---|---|
| 2026-04-25 16:55 | 37.36941 | -121.93043 | 61 ft | 0 kts | 48° |
| 2026-04-25 17:02 | 37.36937 | -121.93049 | 58 ft | 4 kts | 52° |
| 2026-04-25 17:02 | 37.36922 | -121.93074 | 55 ft | 4 kts | 53° |
| 2026-04-25 17:02 | 37.36911 | -121.93102 | 54 ft | 4 kts | 97° |
| 2026-04-25 17:02 | 37.36920 | -121.93125 | 52 ft | 1 kts | 139° |
| 2026-04-25 17:03 | 37.36924 | -121.93129 | 55 ft | 0 kts | 139° |
| 2026-04-25 17:05 | 37.36923 | -121.93128 | 55 ft | 1 kts | 139° |
| 2026-04-25 17:06 | 37.36900 | -121.93102 | 54 ft | 7 kts | 139° |
| 2026-04-25 17:06 | 37.36855 | -121.93053 | 61 ft | 11 kts | 139° |
| 2026-04-25 17:06 | 37.36788 | -121.92980 | 58 ft | 15 kts | 139° |
| 2026-04-25 17:06 | 37.36702 | -121.92884 | 59 ft | 18 kts | 139° |
| 2026-04-25 17:07 | 37.36600 | -121.92769 | 53 ft | 21 kts | 139° |
| 2026-04-25 17:07 | 37.36484 | -121.92646 | 62 ft | 23 kts | 139° |
| 2026-04-25 17:07 | 37.36362 | -121.92513 | 57 ft | 23 kts | 139° |
| 2026-04-25 17:07 | 37.36236 | -121.92376 | 58 ft | 25 kts | 139° |
| 2026-04-25 17:08 | 37.36101 | -121.92227 | 55 ft | 27 kts | 140° |
| 2026-04-25 17:08 | 37.35964 | -121.92080 | 55 ft | 21 kts | 140° |
| 2026-04-25 17:08 | 37.35870 | -121.91970 | 58 ft | 18 kts | 136° |
| 2026-04-25 17:08 | 37.35782 | -121.91938 | 61 ft | 14 kts | 218° |
| 2026-04-25 17:09 | 37.35719 | -121.92030 | 62 ft | 14 kts | 242° |
| 2026-04-25 17:09 | 37.35789 | -121.92142 | 60 ft | 36 kts | 319° |
| 2026-04-25 17:09 | 37.36158 | -121.92549 | 57 ft | 100 kts | 319° |
| 2026-04-25 17:09 | 37.36814 | -121.93270 | 57 ft | 148 kts | 319° |
| 2026-04-25 17:10 | 37.37661 | -121.94203 | 323 ft | 166 kts | 319° |
| 2026-04-25 17:10 | 37.38522 | -121.95148 | 919 ft | 166 kts | 317° |
| 2026-04-25 17:10 | 37.39396 | -121.96099 | 1541 ft | 166 kts | 317° |
| 2026-04-25 17:10 | 37.40313 | -121.97043 | 1992 ft | 181 kts | 327° |
| 2026-04-25 17:11 | 37.41619 | -121.97284 | 2240 ft | 209 kts | 14° |
| 2026-04-25 17:11 | 37.42818 | -121.96176 | 2568 ft | 225 kts | 61° |
| 2026-04-25 17:11 | 37.43123 | -121.94278 | 3090 ft | 226 kts | 104° |
| 2026-04-25 17:11 | 37.42457 | -121.92487 | 3557 ft | 235 kts | 129° |
| 2026-04-25 17:12 | 37.41354 | -121.90844 | 3950 ft | 256 kts | 136° |
| 2026-04-25 17:12 | 37.40104 | -121.89210 | 4747 ft | 261 kts | 137° |
| 2026-04-25 17:12 | 37.38815 | -121.87580 | 5596 ft | 264 kts | 137° |
| 2026-04-25 17:12 | 37.37482 | -121.85962 | 6431 ft | 269 kts | 138° |
| 2026-04-25 17:13 | 37.36117 | -121.84333 | 7218 ft | 272 kts | 137° |
| 2026-04-25 17:13 | 37.35652 | -121.83778 | 7484 ft | 273 kts | 138° |
| 2026-04-25 17:13 | 37.33333 | -121.81020 | 8793 ft | 279 kts | 137° |
| 2026-04-25 17:13 | 37.32396 | -121.79901 | 9316 ft | 281 kts | 137° |
| 2026-04-25 17:14 | 37.30990 | -121.78198 | 10100 ft | 283 kts | 134° |
| 2026-04-25 17:14 | 37.29892 | -121.76072 | 10448 ft | 304 kts | 111° |
| 2026-04-25 17:14 | 37.29293 | -121.73419 | 10602 ft | 327 kts | 106° |
| 2026-04-25 17:14 | 37.28723 | -121.70593 | 11011 ft | 339 kts | 105° |
| 2026-04-25 17:15 | 37.28147 | -121.67699 | 11622 ft | 344 kts | 105° |
| 2026-04-25 17:15 | 37.27562 | -121.64774 | 12249 ft | 348 kts | 104° |
| 2026-04-25 17:15 | 37.26965 | -121.61815 | 12888 ft | 351 kts | 104° |
| 2026-04-25 17:15 | 37.26353 | -121.58831 | 13527 ft | 355 kts | 104° |
| 2026-04-25 17:16 | 37.25732 | -121.55807 | 14133 ft | 359 kts | 104° |
| 2026-04-25 17:16 | 37.25105 | -121.52761 | 14701 ft | 362 kts | 104° |
| 2026-04-25 17:16 | 37.24474 | -121.49692 | 15288 ft | 364 kts | 104° |
| 2026-04-25 17:16 | 37.23837 | -121.46610 | 15862 ft | 366 kts | 104° |
| 2026-04-25 17:17 | 37.23193 | -121.43504 | 16445 ft | 369 kts | 104° |
| 2026-04-25 17:17 | 37.22542 | -121.40374 | 17001 ft | 372 kts | 104° |
| 2026-04-25 17:17 | 37.21882 | -121.37214 | 17573 ft | 376 kts | 104° |
| 2026-04-25 17:17 | 37.21217 | -121.34028 | 18142 ft | 379 kts | 104° |
| 2026-04-25 17:18 | 37.20545 | -121.30817 | 18661 ft | 382 kts | 105° |
| 2026-04-25 17:18 | 37.19865 | -121.27569 | 19105 ft | 388 kts | 105° |
| 2026-04-25 17:18 | 37.19173 | -121.24269 | 19536 ft | 393 kts | 105° |
| 2026-04-25 17:18 | 37.18480 | -121.20969 | 19979 ft | 399 kts | 105° |
| 2026-04-25 17:19 | 37.17768 | -121.17581 | 20446 ft | 404 kts | 106° |
| 2026-04-25 17:19 | 37.17048 | -121.14155 | 20898 ft | 408 kts | 106° |
| 2026-04-25 17:19 | 37.16323 | -121.10702 | 21357 ft | 412 kts | 106° |
| 2026-04-25 17:19 | 37.15588 | -121.07208 | 21790 ft | 417 kts | 107° |
| 2026-04-25 17:20 | 37.14844 | -121.03672 | 22207 ft | 421 kts | 107° |
| 2026-04-25 17:20 | 37.14090 | -121.00107 | 22621 ft | 425 kts | 107° |
| 2026-04-25 17:20 | 37.13329 | -120.96511 | 23033 ft | 430 kts | 107° |
| 2026-04-25 17:20 | 37.12560 | -120.92872 | 23423 ft | 434 kts | 108° |
| 2026-04-25 17:21 | 37.11781 | -120.89200 | 23760 ft | 438 kts | 108° |
| 2026-04-25 17:21 | 37.10997 | -120.85493 | 24118 ft | 441 kts | 108° |
| 2026-04-25 17:21 | 37.10206 | -120.81776 | 24496 ft | 443 kts | 108° |
| 2026-04-25 17:21 | 37.09407 | -120.78041 | 24870 ft | 445 kts | 108° |
| 2026-04-25 17:22 | 37.08603 | -120.74292 | 25251 ft | 446 kts | 108° |
| 2026-04-25 17:22 | 37.08070 | -120.71807 | 25508 ft | 447 kts | 108° |
| 2026-04-25 17:22 | 37.06986 | -120.66769 | 25998 ft | 449 kts | 109° |
| 2026-04-25 17:22 | 37.06171 | -120.62988 | 26351 ft | 451 kts | 109° |
| 2026-04-25 17:23 | 37.05353 | -120.59191 | 26702 ft | 453 kts | 109° |
| 2026-04-25 17:23 | 37.04529 | -120.55378 | 27051 ft | 454 kts | 109° |
| 2026-04-25 17:23 | 37.03701 | -120.51553 | 27393 ft | 456 kts | 109° |
| 2026-04-25 17:23 | 37.02880 | -120.47707 | 27736 ft | 459 kts | 107° |
| 2026-04-25 17:24 | 37.02515 | -120.43713 | 28079 ft | 468 kts | 91° |
| 2026-04-25 17:24 | 37.03019 | -120.39662 | 28397 ft | 476 kts | 74° |
| 2026-04-25 17:24 | 37.04266 | -120.35801 | 28681 ft | 480 kts | 68° |
| 2026-04-25 17:24 | 37.05626 | -120.31965 | 28995 ft | 483 kts | 67° |
| 2026-04-25 17:25 | 37.06987 | -120.28166 | 29304 ft | 485 kts | 67° |
| 2026-04-25 17:25 | 37.08368 | -120.24320 | 29741 ft | 484 kts | 68° |
| 2026-04-25 17:25 | 37.09743 | -120.20469 | 30176 ft | 483 kts | 68° |
| 2026-04-25 17:25 | 37.11107 | -120.16624 | 30543 ft | 483 kts | 68° |
| 2026-04-25 17:26 | 37.12462 | -120.12776 | 30890 ft | 483 kts | 68° |
| 2026-04-25 17:26 | 37.13815 | -120.08924 | 31212 ft | 484 kts | 68° |
| 2026-04-25 17:26 | 37.15172 | -120.05058 | 31509 ft | 485 kts | 68° |
| 2026-04-25 17:26 | 37.16533 | -120.01178 | 31835 ft | 486 kts | 68° |
| 2026-04-25 17:27 | 37.17897 | -119.97299 | 32170 ft | 486 kts | 67° |
| 2026-04-25 17:27 | 37.19263 | -119.93416 | 32513 ft | 487 kts | 67° |
| 2026-04-25 17:27 | 37.20626 | -119.89527 | 32868 ft | 487 kts | 67° |
| 2026-04-25 17:27 | 37.21525 | -119.86954 | 33102 ft | 487 kts | 68° |
| 2026-04-25 17:28 | 37.23340 | -119.81738 | 33566 ft | 487 kts | 67° |
| 2026-04-25 17:28 | 37.24695 | -119.77840 | 33902 ft | 488 kts | 67° |
| 2026-04-25 17:28 | 37.26055 | -119.73933 | 34181 ft | 489 kts | 67° |
| 2026-04-25 17:28 | 37.27417 | -119.70017 | 34449 ft | 489 kts | 67° |
| 2026-04-25 17:29 | 37.28778 | -119.66102 | 34726 ft | 490 kts | 67° |
| 2026-04-25 17:29 | 37.30139 | -119.62185 | 34994 ft | 490 kts | 67° |
| 2026-04-25 17:29 | 37.31499 | -119.58257 | 35252 ft | 490 kts | 67° |
| 2026-04-25 17:29 | 37.32860 | -119.54324 | 35503 ft | 491 kts | 67° |
| 2026-04-25 17:30 | 37.34220 | -119.50389 | 35732 ft | 492 kts | 67° |
| 2026-04-25 17:30 | 37.35586 | -119.46437 | 35939 ft | 493 kts | 67° |
| 2026-04-25 17:30 | 37.36953 | -119.42475 | 36178 ft | 494 kts | 68° |
| 2026-04-25 17:30 | 37.38312 | -119.38521 | 36420 ft | 493 kts | 68° |
| 2026-04-25 17:31 | 37.39678 | -119.34551 | 36621 ft | 494 kts | 68° |
| 2026-04-25 17:31 | 37.41041 | -119.30583 | 36824 ft | 495 kts | 68° |
| 2026-04-25 17:31 | 37.43769 | -119.22623 | 36889 ft | 503 kts | 67° |
| 2026-04-25 17:32 | 37.46559 | -119.14451 | 36882 ft | 513 kts | 68° |
| 2026-04-25 17:32 | 37.49389 | -119.06133 | 36916 ft | 519 kts | 68° |
| 2026-04-25 17:33 | 37.52227 | -118.97756 | 36929 ft | 520 kts | 68° |
| 2026-04-25 17:33 | 37.55071 | -118.89376 | 36950 ft | 521 kts | 68° |
| 2026-04-25 17:34 | 37.57905 | -118.80995 | 36948 ft | 519 kts | 68° |
| 2026-04-25 17:34 | 37.60729 | -118.72612 | 36936 ft | 521 kts | 68° |
| 2026-04-25 17:35 | 37.63560 | -118.64171 | 36886 ft | 523 kts | 68° |
| 2026-04-25 17:35 | 37.66396 | -118.55691 | 36848 ft | 525 kts | 68° |
| 2026-04-25 17:36 | 37.69243 | -118.47185 | 36812 ft | 526 kts | 68° |
| 2026-04-25 17:36 | 37.72082 | -118.38658 | 36784 ft | 527 kts | 68° |
| 2026-04-25 17:37 | 37.74919 | -118.30107 | 36790 ft | 528 kts | 68° |
| 2026-04-25 17:37 | 37.77761 | -118.21532 | 36785 ft | 529 kts | 68° |
| 2026-04-25 17:38 | 37.80119 | -118.14402 | 36798 ft | 529 kts | 68° |
| 2026-04-25 17:38 | 37.83408 | -118.04401 | 36801 ft | 530 kts | 68° |
| 2026-04-25 17:39 | 37.86232 | -117.95792 | 36819 ft | 530 kts | 68° |
| 2026-04-25 17:39 | 37.89051 | -117.87166 | 36817 ft | 530 kts | 68° |
| 2026-04-25 17:40 | 37.91862 | -117.78529 | 36807 ft | 530 kts | 68° |
| 2026-04-25 17:40 | 37.94667 | -117.69891 | 36816 ft | 531 kts | 68° |
| 2026-04-25 17:41 | 37.97472 | -117.61238 | 36814 ft | 531 kts | 68° |
| 2026-04-25 17:41 | 38.00269 | -117.52585 | 36819 ft | 531 kts | 68° |
| 2026-04-25 17:42 | 38.03055 | -117.43918 | 36821 ft | 530 kts | 68° |
| 2026-04-25 17:42 | 38.05839 | -117.35247 | 36829 ft | 531 kts | 68° |
| 2026-04-25 17:43 | 38.08624 | -117.26563 | 36828 ft | 531 kts | 68° |
| 2026-04-25 17:43 | 38.11394 | -117.17870 | 36918 ft | 531 kts | 68° |
| 2026-04-25 17:44 | 38.14173 | -117.09163 | 36921 ft | 531 kts | 68° |
| 2026-04-25 17:44 | 38.16929 | -117.00513 | 36906 ft | 531 kts | 68° |
| 2026-04-25 17:45 | 38.18672 | -116.94637 | 36886 ft | 531 kts | 77° |
| 2026-04-25 17:45 | 38.19354 | -116.86967 | 36870 ft | 525 kts | 90° |
| 2026-04-25 17:45 | 38.19512 | -116.82333 | 36852 ft | 525 kts | 90° |
| 2026-04-25 17:46 | 38.19810 | -116.73038 | 36834 ft | 527 kts | 90° |
| 2026-04-25 17:46 | 38.20101 | -116.63721 | 36818 ft | 527 kts | 90° |
| 2026-04-25 17:47 | 38.20388 | -116.54411 | 36797 ft | 527 kts | 90° |
| 2026-04-25 17:47 | 38.20671 | -116.45093 | 36804 ft | 527 kts | 90° |
| 2026-04-25 17:48 | 38.21072 | -116.31119 | 36806 ft | 527 kts | 91° |
| 2026-04-25 17:49 | 38.21332 | -116.21782 | 36805 ft | 528 kts | 90° |
| 2026-04-25 17:49 | 38.21588 | -116.12516 | 36801 ft | 528 kts | 91° |
| 2026-04-25 17:50 | 38.21835 | -116.03181 | 36810 ft | 528 kts | 90° |
| 2026-04-25 17:50 | 38.22086 | -115.93848 | 36810 ft | 528 kts | 90° |
| 2026-04-25 17:51 | 38.22326 | -115.84511 | 36801 ft | 528 kts | 91° |
| 2026-04-25 17:51 | 38.22553 | -115.75169 | 36801 ft | 528 kts | 91° |
| 2026-04-25 17:52 | 38.22779 | -115.65822 | 36798 ft | 529 kts | 90° |
| 2026-04-25 17:52 | 38.23007 | -115.56476 | 36770 ft | 529 kts | 91° |
| 2026-04-25 17:53 | 38.23204 | -115.47118 | 36786 ft | 529 kts | 91° |
| 2026-04-25 17:53 | 38.23391 | -115.37749 | 36795 ft | 529 kts | 91° |
| 2026-04-25 17:54 | 38.23588 | -115.28381 | 36798 ft | 530 kts | 91° |
| 2026-04-25 17:54 | 38.23773 | -115.19004 | 36796 ft | 530 kts | 91° |
| 2026-04-25 17:55 | 38.23951 | -115.09628 | 36782 ft | 527 kts | 91° |
| 2026-04-25 17:55 | 38.24036 | -115.05039 | 36774 ft | 512 kts | 91° |
| 2026-04-25 17:55 | 38.24117 | -115.00553 | 36779 ft | 504 kts | 91° |
| 2026-04-25 17:56 | 38.24271 | -114.91666 | 36779 ft | 502 kts | 91° |
| 2026-04-25 17:56 | 38.24409 | -114.82788 | 36777 ft | 502 kts | 92° |
| 2026-04-25 17:57 | 38.24543 | -114.73966 | 36779 ft | 502 kts | 91° |
| 2026-04-25 17:57 | 38.24684 | -114.65097 | 36782 ft | 502 kts | 91° |
| 2026-04-25 17:58 | 38.24815 | -114.56212 | 36376 ft | 501 kts | 92° |
| 2026-04-25 17:58 | 38.24874 | -114.51783 | 36093 ft | 500 kts | 92° |
| 2026-04-25 17:58 | 38.24929 | -114.47372 | 35841 ft | 497 kts | 92° |
| 2026-04-25 17:58 | 38.24940 | -114.44466 | 35666 ft | 493 kts | 96° |
| 2026-04-25 17:59 | 38.24591 | -114.40116 | 35235 ft | 484 kts | 105° |
| 2026-04-25 17:59 | 38.23766 | -114.36015 | 34803 ft | 474 kts | 115° |
| 2026-04-25 17:59 | 38.22544 | -114.32160 | 34358 ft | 467 kts | 120° |
| 2026-04-25 17:59 | 38.21259 | -114.28433 | 33908 ft | 465 kts | 120° |
| 2026-04-25 18:00 | 38.19975 | -114.24686 | 33405 ft | 457 kts | 120° |
| 2026-04-25 18:00 | 38.18730 | -114.21031 | 32986 ft | 446 kts | 120° |
| 2026-04-25 18:00 | 38.17509 | -114.17451 | 32550 ft | 437 kts | 120° |
| 2026-04-25 18:00 | 38.16307 | -114.13940 | 32123 ft | 429 kts | 120° |
| 2026-04-25 18:01 | 38.15114 | -114.10488 | 31711 ft | 426 kts | 120° |
| 2026-04-25 18:01 | 38.13919 | -114.07049 | 31301 ft | 425 kts | 120° |
| 2026-04-25 18:01 | 38.12728 | -114.03618 | 30888 ft | 424 kts | 120° |
| 2026-04-25 18:01 | 38.11544 | -114.00194 | 30495 ft | 423 kts | 120° |
| 2026-04-25 18:02 | 38.10366 | -113.96784 | 30098 ft | 422 kts | 120° |
| 2026-04-25 18:02 | 38.09187 | -113.93377 | 29672 ft | 421 kts | 120° |
| 2026-04-25 18:02 | 38.08011 | -113.89982 | 29286 ft | 419 kts | 120° |
| 2026-04-25 18:02 | 38.06838 | -113.86607 | 28911 ft | 417 kts | 120° |
| 2026-04-25 18:03 | 38.05667 | -113.83239 | 28529 ft | 415 kts | 120° |
| 2026-04-25 18:03 | 38.04507 | -113.79906 | 28170 ft | 413 kts | 120° |
| 2026-04-25 18:03 | 38.03350 | -113.76584 | 27802 ft | 410 kts | 120° |
| 2026-04-25 18:03 | 38.02202 | -113.73290 | 27427 ft | 408 kts | 120° |
| 2026-04-25 18:04 | 38.01057 | -113.70007 | 27053 ft | 405 kts | 120° |
| 2026-04-25 18:04 | 37.99921 | -113.66748 | 26672 ft | 402 kts | 120° |
| 2026-04-25 18:04 | 37.98791 | -113.63518 | 26292 ft | 400 kts | 120° |
| 2026-04-25 18:04 | 37.97663 | -113.60304 | 25911 ft | 398 kts | 120° |
| 2026-04-25 18:05 | 37.96537 | -113.57102 | 25517 ft | 396 kts | 120° |
| 2026-04-25 18:05 | 37.95416 | -113.53921 | 25123 ft | 395 kts | 120° |
| 2026-04-25 18:05 | 37.94314 | -113.50792 | 24734 ft | 393 kts | 120° |
| 2026-04-25 18:05 | 37.93204 | -113.47633 | 24326 ft | 393 kts | 120° |
| 2026-04-25 18:06 | 37.92095 | -113.44475 | 23917 ft | 392 kts | 120° |
| 2026-04-25 18:06 | 37.90983 | -113.41319 | 23520 ft | 392 kts | 120° |
| 2026-04-25 18:06 | 37.89872 | -113.38173 | 23075 ft | 391 kts | 119° |
| 2026-04-25 18:06 | 37.88761 | -113.35031 | 22675 ft | 389 kts | 119° |
| 2026-04-25 18:07 | 37.87657 | -113.31911 | 22262 ft | 386 kts | 119° |
| 2026-04-25 18:07 | 37.86562 | -113.28820 | 21847 ft | 384 kts | 118° |
| 2026-04-25 18:07 | 37.85474 | -113.25744 | 21465 ft | 381 kts | 118° |
| 2026-04-25 18:07 | 37.84392 | -113.22689 | 21067 ft | 379 kts | 118° |
| 2026-04-25 18:08 | 37.83312 | -113.19655 | 20668 ft | 378 kts | 118° |
| 2026-04-25 18:08 | 37.82233 | -113.16630 | 20271 ft | 376 kts | 118° |
| 2026-04-25 18:08 | 37.81130 | -113.13646 | 19875 ft | 372 kts | 124° |
| 2026-04-25 18:08 | 37.79548 | -113.11157 | 19479 ft | 359 kts | 145° |
| 2026-04-25 18:09 | 37.77488 | -113.09569 | 19305 ft | 338 kts | 164° |
| 2026-04-25 18:09 | 37.75304 | -113.08900 | 18909 ft | 320 kts | 182° |
| 2026-04-25 18:09 | 37.73142 | -113.09119 | 18400 ft | 306 kts | 199° |
| 2026-04-25 18:09 | 37.71773 | -113.09673 | 18222 ft | 308 kts | 202° |
| 2026-04-25 18:10 | 37.69072 | -113.10804 | 17728 ft | 310 kts | 201° |
| 2026-04-25 18:10 | 37.67029 | -113.11635 | 17382 ft | 307 kts | 201° |
| 2026-04-25 18:10 | 37.65029 | -113.12440 | 17243 ft | 297 kts | 201° |
| 2026-04-25 18:10 | 37.63082 | -113.13222 | 16960 ft | 290 kts | 201° |
| 2026-04-25 18:11 | 37.61171 | -113.13993 | 16379 ft | 287 kts | 201° |
| 2026-04-25 18:11 | 37.59271 | -113.14763 | 16011 ft | 286 kts | 201° |
| 2026-04-25 18:11 | 37.57333 | -113.15553 | 15341 ft | 297 kts | 200° |
| 2026-04-25 18:11 | 37.55373 | -113.16350 | 14766 ft | 293 kts | 200° |
| 2026-04-25 18:12 | 37.53468 | -113.17121 | 14221 ft | 289 kts | 199° |
| 2026-04-25 18:12 | 37.51570 | -113.17890 | 13682 ft | 284 kts | 199° |
| 2026-04-25 18:12 | 37.49704 | -113.18647 | 13104 ft | 279 kts | 199° |
| 2026-04-25 18:12 | 37.47875 | -113.19390 | 12577 ft | 273 kts | 200° |
| 2026-04-25 18:13 | 37.46192 | -113.20407 | 12151 ft | 264 kts | 211° |
| 2026-04-25 18:13 | 37.44646 | -113.21554 | 11805 ft | 252 kts | 210° |
| 2026-04-25 18:13 | 37.43146 | -113.22658 | 11505 ft | 248 kts | 210° |
| 2026-04-25 18:14 | 37.40152 | -113.24858 | 10824 ft | 250 kts | 210° |
| 2026-04-25 18:14 | 37.38648 | -113.25961 | 10484 ft | 250 kts | 210° |
| 2026-04-25 18:14 | 37.37162 | -113.27049 | 10144 ft | 244 kts | 210° |
| 2026-04-25 18:14 | 37.35699 | -113.28115 | 9835 ft | 244 kts | 210° |
| 2026-04-25 18:15 | 37.34229 | -113.29184 | 9497 ft | 245 kts | 210° |
| 2026-04-25 18:15 | 37.32754 | -113.30258 | 9161 ft | 245 kts | 210° |
| 2026-04-25 18:15 | 37.31302 | -113.31317 | 8845 ft | 244 kts | 210° |
| 2026-04-25 18:15 | 37.29845 | -113.32384 | 8518 ft | 239 kts | 210° |
| 2026-04-25 18:16 | 37.28435 | -113.33416 | 8216 ft | 230 kts | 210° |
| 2026-04-25 18:16 | 37.27081 | -113.34406 | 7919 ft | 221 kts | 210° |
| 2026-04-25 18:16 | 37.24485 | -113.36299 | 7370 ft | 214 kts | 210° |
| 2026-04-25 18:17 | 37.23210 | -113.37228 | 7096 ft | 208 kts | 210° |
| 2026-04-25 18:17 | 37.21974 | -113.38129 | 6874 ft | 203 kts | 210° |
| 2026-04-25 18:17 | 37.20765 | -113.39011 | 6598 ft | 200 kts | 210° |
| 2026-04-25 18:17 | 37.19572 | -113.39880 | 6328 ft | 197 kts | 210° |
| 2026-04-25 18:18 | 37.18396 | -113.40734 | 6051 ft | 195 kts | 210° |
| 2026-04-25 18:18 | 37.17219 | -113.41585 | 5767 ft | 195 kts | 211° |
| 2026-04-25 18:18 | 37.16065 | -113.42420 | 5481 ft | 187 kts | 211° |
| 2026-04-25 18:18 | 37.14972 | -113.43211 | 5206 ft | 175 kts | 211° |
| 2026-04-25 18:19 | 37.13959 | -113.43944 | 5029 ft | 162 kts | 212° |
| 2026-04-25 18:19 | 37.13018 | -113.44623 | 4858 ft | 152 kts | 212° |
| 2026-04-25 18:19 | 37.12105 | -113.45282 | 4617 ft | 150 kts | 212° |
| 2026-04-25 18:19 | 37.11207 | -113.45933 | 4378 ft | 148 kts | 213° |
| 2026-04-25 18:20 | 37.10315 | -113.46577 | 4176 ft | 147 kts | 213° |
| 2026-04-25 18:20 | 37.09427 | -113.47219 | 3977 ft | 147 kts | 213° |
| 2026-04-25 18:20 | 37.08542 | -113.47881 | 3781 ft | 149 kts | 213° |
| 2026-04-25 18:20 | 37.07674 | -113.48574 | 3559 ft | 148 kts | 214° |
| 2026-04-25 18:21 | 37.06815 | -113.49270 | 3339 ft | 150 kts | 213° |
| 2026-04-25 18:21 | 37.05878 | -113.49865 | 3112 ft | 152 kts | 203° |
| 2026-04-25 18:21 | 37.04883 | -113.50353 | 2932 ft | 155 kts | 203° |
| 2026-04-25 18:21 | 37.03944 | -113.50870 | 2869 ft | 123 kts | 203° |
| 2026-04-25 18:22 | 37.03415 | -113.51151 | 2866 ft | 47 kts | 202° |
| 2026-04-25 18:22 | 37.03331 | -113.51194 | 2866 ft | 32 kts | 202° |
| 2026-04-25 18:22 | 37.03154 | -113.51221 | 2866 ft | 8 kts | 136° |
| 2026-04-25 18:22 | 37.03127 | -113.51149 | 2866 ft | 10 kts | 113° |
| 2026-04-25 18:23 | 37.03107 | -113.51071 | 2869 ft | 8 kts | 107° |
| 2026-04-25 18:23 | 37.03094 | -113.51025 | 2872 ft | 3 kts | 112° |
| 2026-04-25 18:23 | 37.03088 | -113.51007 | 2873 ft | 3 kts | 113° |
| 2026-04-25 18:23 | 37.03080 | -113.50983 | 2874 ft | 2 kts | 113° |